Pagina principale
METAR-TAF:

METAR-TAF

Aeroporti :

Aeroporto di Nîmes–Alès–Camargue–Cévennes

Nîmes, Francia

latitudine: 43-45N, longitudine: 004-25E, altezza: 94 m

Osservazione

Il bollettino è stato emesso 12 minuti fa, alle 20:00 UTC
Vento 8 kt da sud-est
Temperature 12°C
Umidità 94%
Pressione 1027 hPa
Visibilità 10 km o più
Nuvoloso ad un'altezza di 1100 ft
Cielo coperto ad un'altezza di 3800 ft

METAR: LFTW 162000Z AUTO 13008KT 9999 BKN011 OVC038 12/11 Q1027

Ora: 21:12 (20:12 UTC)

Previsione

Il bollettino è stato emesso 6 ore e 12 minuti fa, alle 14:00 UTC
Previsione valida dal 16 alle 15 UTC al 17 alle 15 UTC
Vento 15 kt da sud/sud-est
Visibilità 10 km o più
Cielo coperto ad un'altezza di 1000 ft
Temporaneamente
dal 16 alle 15 UTC al 17 alle 15 UTC
Visibilità: 4000 m
Cielo coperto ad un'altezza di 300 ft
pioggia debole, foschia

TAF: LFTW 161400Z 1615/1715 15015KT 9999 OVC010 TEMPO 1615/1715 4000 -RA BR OVC003

Osservazioni e previsioni meteorologiche di più di 4000 aeroporti (messaggi METAR e TAF).

Le stazioni disponibili sono rappresentate dai dischi gialli e rossi sulla carta.

Puntare il mouse per vedere il nome della stazione.

Clicca sopra per visualizzare le osservazioni e previsioni meteorologiche.

Per cambiare la mappa : fare clic sui pulsanti verdi con una croce nera per ingrandire, il pulsante verde con un trattino per diminuire, o sulla freccia verde per le mappe adiacenti.


METAR-TAF: